sensor_id;sensor_type;location;lat;lon;timestamp;temperature;humidity
29571;DHT22;16814;52.118;11.436;2023-02-11T00:01:07;3.40;99.90
29571;DHT22;16814;52.118;11.436;2023-02-11T00:03:34;3.40;99.90
29571;DHT22;16814;52.118;11.436;2023-02-11T00:06:05;3.50;99.90
29571;DHT22;16814;52.118;11.436;2023-02-11T00:08:38;3.50;99.90
29571;DHT22;16814;52.118;11.436;2023-02-11T00:11:06;3.60;99.90
29571;DHT22;16814;52.118;11.436;2023-02-11T00:13:38;3.60;99.90
29571;DHT22;16814;52.118;11.436;2023-02-11T00:16:16;3.60;99.90
29571;DHT22;16814;52.118;11.436;2023-02-11T00:18:43;3.70;99.90
29571;DHT22;16814;52.118;11.436;2023-02-11T00:21:16;3.70;99.90
29571;DHT22;16814;52.118;11.436;2023-02-11T00:23:48;3.70;99.90
29571;DHT22;16814;52.118;11.436;2023-02-11T00:26:21;3.70;99.90
29571;DHT22;16814;52.118;11.436;2023-02-11T00:28:48;3.80;99.90
29571;DHT22;16814;52.118;11.436;2023-02-11T00:31:17;3.80;99.90
29571;DHT22;16814;52.118;11.436;2023-02-11T00:33:45;3.80;99.90
29571;DHT22;16814;52.118;11.436;2023-02-11T00:36:18;3.80;99.90
29571;DHT22;16814;52.118;11.436;2023-02-11T00:38:45;3.80;99.90
29571;DHT22;16814;52.118;11.436;2023-02-11T00:41:13;3.80;99.90
29571;DHT22;16814;52.118;11.436;2023-02-11T00:43:40;3.80;99.90
29571;DHT22;16814;52.118;11.436;2023-02-11T00:46:08;3.80;99.90
29571;DHT22;16814;52.118;11.436;2023-02-11T00:48:34;3.80;99.90
29571;DHT22;16814;52.118;11.436;2023-02-11T00:51:01;3.80;99.90
29571;DHT22;16814;52.118;11.436;2023-02-11T00:53:26;3.80;99.90
29571;DHT22;16814;52.118;11.436;2023-02-11T00:56:02;3.80;99.90
29571;DHT22;16814;52.118;11.436;2023-02-11T00:58:31;3.80;99.90
29571;DHT22;16814;52.118;11.436;2023-02-11T01:00:59;3.80;99.90
29571;DHT22;16814;52.118;11.436;2023-02-11T01:03:25;3.90;99.90
29571;DHT22;16814;52.118;11.436;2023-02-11T01:05:51;3.90;99.90
29571;DHT22;16814;52.118;11.436;2023-02-11T01:08:20;3.90;99.90
29571;DHT22;16814;52.118;11.436;2023-02-11T01:11:14;3.90;99.90
29571;DHT22;16814;52.118;11.436;2023-02-11T01:13:41;3.90;99.90
29571;DHT22;16814;52.118;11.436;2023-02-11T01:16:12;4.00;99.90
29571;DHT22;16814;52.118;11.436;2023-02-11T01:18:38;3.90;99.90
29571;DHT22;16814;52.118;11.436;2023-02-11T01:21:04;3.90;99.90
29571;DHT22;16814;52.118;11.436;2023-02-11T01:23:31;3.90;99.90
29571;DHT22;16814;52.118;11.436;2023-02-11T01:25:58;3.90;99.90
29571;DHT22;16814;52.118;11.436;2023-02-11T01:28:26;3.90;99.90
29571;DHT22;16814;52.118;11.436;2023-02-11T01:30:56;3.80;99.90
29571;DHT22;16814;52.118;11.436;2023-02-11T01:33:23;3.80;99.90
29571;DHT22;16814;52.118;11.436;2023-02-11T01:35:51;3.80;99.90
29571;DHT22;16814;52.118;11.436;2023-02-11T01:38:23;3.80;99.90
29571;DHT22;16814;52.118;11.436;2023-02-11T01:40:52;3.80;99.90
29571;DHT22;16814;52.118;11.436;2023-02-11T01:43:21;3.80;99.90
29571;DHT22;16814;52.118;11.436;2023-02-11T01:45:58;3.80;99.90
29571;DHT22;16814;52.118;11.436;2023-02-11T01:48:31;3.80;99.90
29571;DHT22;16814;52.118;11.436;2023-02-11T01:51:16;3.80;99.90
29571;DHT22;16814;52.118;11.436;2023-02-11T01:53:45;3.80;99.90
29571;DHT22;16814;52.118;11.436;2023-02-11T01:56:37;3.90;99.90
29571;DHT22;16814;52.118;11.436;2023-02-11T02:10:50;3.90;99.90
29571;DHT22;16814;52.118;11.436;2023-02-11T02:13:19;4.00;99.90
29571;DHT22;16814;52.118;11.436;2023-02-11T02:15:55;4.10;99.90
29571;DHT22;16814;52.118;11.436;2023-02-11T02:27:44;4.10;99.90
29571;DHT22;16814;52.118;11.436;2023-02-11T02:33:29;4.20;99.90
29571;DHT22;16814;52.118;11.436;2023-02-11T02:36:23;4.20;99.90
29571;DHT22;16814;52.118;11.436;2023-02-11T02:39:19;4.20;99.90
29571;DHT22;16814;52.118;11.436;2023-02-11T02:41:49;4.10;99.90
29571;DHT22;16814;52.118;11.436;2023-02-11T02:44:17;4.20;99.90
29571;DHT22;16814;52.118;11.436;2023-02-11T02:46:44;4.20;99.90
29571;DHT22;16814;52.118;11.436;2023-02-11T02:49:12;4.20;99.90
29571;DHT22;16814;52.118;11.436;2023-02-11T03:01:14;4.10;99.90
29571;DHT22;16814;52.118;11.436;2023-02-11T03:09:53;4.10;99.90
29571;DHT22;16814;52.118;11.436;2023-02-11T03:12:29;4.00;99.90
29571;DHT22;16814;52.118;11.436;2023-02-11T03:15:00;4.10;99.90
29571;DHT22;16814;52.118;11.436;2023-02-11T03:17:29;4.00;99.90
29571;DHT22;16814;52.118;11.436;2023-02-11T03:19:59;4.10;99.90
29571;DHT22;16814;52.118;11.436;2023-02-11T03:22:34;4.00;99.90
29571;DHT22;16814;52.118;11.436;2023-02-11T03:25:02;4.10;99.90
29571;DHT22;16814;52.118;11.436;2023-02-11T03:31:09;4.10;99.90
29571;DHT22;16814;52.118;11.436;2023-02-11T03:33:58;4.10;99.90
29571;DHT22;16814;52.118;11.436;2023-02-11T03:36:53;4.10;99.90
29571;DHT22;16814;52.118;11.436;2023-02-11T03:42:47;4.20;99.90
29571;DHT22;16814;52.118;11.436;2023-02-11T03:45:19;4.20;99.90
29571;DHT22;16814;52.118;11.436;2023-02-11T03:47:50;4.20;99.90
29571;DHT22;16814;52.118;11.436;2023-02-11T03:50:20;4.20;99.90
29571;DHT22;16814;52.118;11.436;2023-02-11T03:52:48;4.30;99.90
29571;DHT22;16814;52.118;11.436;2023-02-11T03:55:24;4.30;99.90
29571;DHT22;16814;52.118;11.436;2023-02-11T03:57:54;4.30;99.90
29571;DHT22;16814;52.118;11.436;2023-02-11T04:00:36;4.30;99.90
29571;DHT22;16814;52.118;11.436;2023-02-11T04:03:06;4.30;99.90
29571;DHT22;16814;52.118;11.436;2023-02-11T04:05:32;4.30;99.90
29571;DHT22;16814;52.118;11.436;2023-02-11T04:07:58;4.30;99.90
29571;DHT22;16814;52.118;11.436;2023-02-11T04:10:24;4.30;99.90
29571;DHT22;16814;52.118;11.436;2023-02-11T04:12:53;4.40;99.90
29571;DHT22;16814;52.118;11.436;2023-02-11T04:15:19;4.40;99.90
29571;DHT22;16814;52.118;11.436;2023-02-11T04:17:46;4.40;99.90
29571;DHT22;16814;52.118;11.436;2023-02-11T04:20:12;4.40;99.90
29571;DHT22;16814;52.118;11.436;2023-02-11T04:22:38;4.40;99.90
29571;DHT22;16814;52.118;11.436;2023-02-11T04:25:10;4.40;99.90
29571;DHT22;16814;52.118;11.436;2023-02-11T04:27:37;4.40;99.90
29571;DHT22;16814;52.118;11.436;2023-02-11T04:30:05;4.40;99.90
29571;DHT22;16814;52.118;11.436;2023-02-11T04:32:30;4.40;99.90
29571;DHT22;16814;52.118;11.436;2023-02-11T04:34:57;4.40;99.90
29571;DHT22;16814;52.118;11.436;2023-02-11T04:37:25;4.40;99.90
29571;DHT22;16814;52.118;11.436;2023-02-11T04:39:51;4.50;99.90
29571;DHT22;16814;52.118;11.436;2023-02-11T04:42:17;4.40;99.90
29571;DHT22;16814;52.118;11.436;2023-02-11T04:44:44;4.50;99.90
29571;DHT22;16814;52.118;11.436;2023-02-11T04:47:11;4.40;99.90
29571;DHT22;16814;52.118;11.436;2023-02-11T04:49:41;4.50;99.90
29571;DHT22;16814;52.118;11.436;2023-02-11T04:52:07;4.50;99.90
29571;DHT22;16814;52.118;11.436;2023-02-11T04:54:33;4.50;99.90
29571;DHT22;16814;52.118;11.436;2023-02-11T04:57:00;4.50;99.90
29571;DHT22;16814;52.118;11.436;2023-02-11T04:59:26;4.50;99.90
29571;DHT22;16814;52.118;11.436;2023-02-11T05:01:54;4.50;99.90
29571;DHT22;16814;52.118;11.436;2023-02-11T05:04:21;4.50;99.90
29571;DHT22;16814;52.118;11.436;2023-02-11T05:06:48;4.50;99.90
29571;DHT22;16814;52.118;11.436;2023-02-11T05:09:13;4.50;99.90
29571;DHT22;16814;52.118;11.436;2023-02-11T05:11:42;4.50;99.90
29571;DHT22;16814;52.118;11.436;2023-02-11T05:14:08;4.50;99.90
29571;DHT22;16814;52.118;11.436;2023-02-11T05:16:33;4.50;99.90
29571;DHT22;16814;52.118;11.436;2023-02-11T05:19:00;4.50;99.90
29571;DHT22;16814;52.118;11.436;2023-02-11T05:21:27;4.50;99.90
29571;DHT22;16814;52.118;11.436;2023-02-11T05:23:53;4.50;99.90
29571;DHT22;16814;52.118;11.436;2023-02-11T05:26:21;4.50;99.90
29571;DHT22;16814;52.118;11.436;2023-02-11T05:28:48;4.50;99.90
29571;DHT22;16814;52.118;11.436;2023-02-11T05:31:16;4.50;99.90
29571;DHT22;16814;52.118;11.436;2023-02-11T05:33:42;4.50;99.90
29571;DHT22;16814;52.118;11.436;2023-02-11T05:36:10;4.50;99.90
29571;DHT22;16814;52.118;11.436;2023-02-11T05:38:37;4.50;99.90
29571;DHT22;16814;52.118;11.436;2023-02-11T05:41:05;4.50;99.90
29571;DHT22;16814;52.118;11.436;2023-02-11T05:43:39;4.50;99.90
29571;DHT22;16814;52.118;11.436;2023-02-11T05:46:05;4.50;99.90
29571;DHT22;16814;52.118;11.436;2023-02-11T05:48:31;4.50;99.90
29571;DHT22;16814;52.118;11.436;2023-02-11T05:50:58;4.50;99.90
29571;DHT22;16814;52.118;11.436;2023-02-11T05:53:26;4.50;99.90
29571;DHT22;16814;52.118;11.436;2023-02-11T05:55:53;4.50;99.90
29571;DHT22;16814;52.118;11.436;2023-02-11T05:58:19;4.50;99.90
29571;DHT22;16814;52.118;11.436;2023-02-11T06:00:47;4.50;99.90
29571;DHT22;16814;52.118;11.436;2023-02-11T06:03:17;4.50;99.90
29571;DHT22;16814;52.118;11.436;2023-02-11T06:05:45;4.50;99.90
29571;DHT22;16814;52.118;11.436;2023-02-11T06:08:12;4.50;99.90
29571;DHT22;16814;52.118;11.436;2023-02-11T06:10:39;4.50;99.90
29571;DHT22;16814;52.118;11.436;2023-02-11T06:13:07;4.50;99.90
29571;DHT22;16814;52.118;11.436;2023-02-11T06:15:35;4.50;99.90
29571;DHT22;16814;52.118;11.436;2023-02-11T06:18:02;4.50;99.90
29571;DHT22;16814;52.118;11.436;2023-02-11T06:20:31;4.50;99.90
29571;DHT22;16814;52.118;11.436;2023-02-11T06:22:57;4.50;99.90
29571;DHT22;16814;52.118;11.436;2023-02-11T06:25:23;4.50;99.90
29571;DHT22;16814;52.118;11.436;2023-02-11T06:27:50;4.50;99.90
29571;DHT22;16814;52.118;11.436;2023-02-11T06:30:17;4.50;99.90
29571;DHT22;16814;52.118;11.436;2023-02-11T06:32:43;4.50;99.90
29571;DHT22;16814;52.118;11.436;2023-02-11T06:35:09;4.60;99.90
29571;DHT22;16814;52.118;11.436;2023-02-11T06:37:36;4.50;99.90
29571;DHT22;16814;52.118;11.436;2023-02-11T06:40:03;4.60;99.90
29571;DHT22;16814;52.118;11.436;2023-02-11T06:42:30;4.60;99.90
29571;DHT22;16814;52.118;11.436;2023-02-11T06:44:57;4.60;99.90
29571;DHT22;16814;52.118;11.436;2023-02-11T06:47:25;4.60;99.90
29571;DHT22;16814;52.118;11.436;2023-02-11T06:49:51;4.60;99.90
29571;DHT22;16814;52.118;11.436;2023-02-11T06:52:17;4.60;99.90
29571;DHT22;16814;52.118;11.436;2023-02-11T06:54:44;4.60;99.90
29571;DHT22;16814;52.118;11.436;2023-02-11T06:57:11;4.60;99.90
29571;DHT22;16814;52.118;11.436;2023-02-11T06:59:39;4.70;99.90
29571;DHT22;16814;52.118;11.436;2023-02-11T07:02:08;4.70;99.90
29571;DHT22;16814;52.118;11.436;2023-02-11T07:04:34;4.70;99.90
29571;DHT22;16814;52.118;11.436;2023-02-11T07:06:59;4.70;99.90
29571;DHT22;16814;52.118;11.436;2023-02-11T07:09:26;4.70;99.90
29571;DHT22;16814;52.118;11.436;2023-02-11T07:11:53;4.70;99.90
29571;DHT22;16814;52.118;11.436;2023-02-11T07:14:18;4.70;99.90
29571;DHT22;16814;52.118;11.436;2023-02-11T07:16:44;4.70;99.90
29571;DHT22;16814;52.118;11.436;2023-02-11T07:19:11;4.80;99.90
29571;DHT22;16814;52.118;11.436;2023-02-11T07:21:38;4.80;99.90
29571;DHT22;16814;52.118;11.436;2023-02-11T07:24:07;4.80;99.90
29571;DHT22;16814;52.118;11.436;2023-02-11T07:26:34;4.80;99.90
29571;DHT22;16814;52.118;11.436;2023-02-11T07:29:00;4.80;99.90
29571;DHT22;16814;52.118;11.436;2023-02-11T07:31:29;4.90;99.90
29571;DHT22;16814;52.118;11.436;2023-02-11T07:34:01;4.90;99.90
29571;DHT22;16814;52.118;11.436;2023-02-11T07:36:31;4.90;99.90
29571;DHT22;16814;52.118;11.436;2023-02-11T07:38:57;4.90;99.90
29571;DHT22;16814;52.118;11.436;2023-02-11T07:41:24;4.90;99.90
29571;DHT22;16814;52.118;11.436;2023-02-11T07:43:53;4.90;99.90
29571;DHT22;16814;52.118;11.436;2023-02-11T07:46:25;4.90;99.90
29571;DHT22;16814;52.118;11.436;2023-02-11T07:48:51;4.90;99.90
29571;DHT22;16814;52.118;11.436;2023-02-11T07:51:25;5.00;99.90
29571;DHT22;16814;52.118;11.436;2023-02-11T07:53:52;5.00;99.90
29571;DHT22;16814;52.118;11.436;2023-02-11T07:56:22;5.00;99.90
29571;DHT22;16814;52.118;11.436;2023-02-11T07:58:48;5.00;99.90
29571;DHT22;16814;52.118;11.436;2023-02-11T08:01:17;5.00;99.90
29571;DHT22;16814;52.118;11.436;2023-02-11T08:03:47;5.10;99.90
29571;DHT22;16814;52.118;11.436;2023-02-11T08:06:21;5.10;99.90
29571;DHT22;16814;52.118;11.436;2023-02-11T08:08:49;5.10;99.90
29571;DHT22;16814;52.118;11.436;2023-02-11T08:11:22;5.10;99.90
29571;DHT22;16814;52.118;11.436;2023-02-11T08:13:49;5.20;99.90
29571;DHT22;16814;52.118;11.436;2023-02-11T08:16:32;5.20;99.90
29571;DHT22;16814;52.118;11.436;2023-02-11T08:19:04;5.20;99.90
29571;DHT22;16814;52.118;11.436;2023-02-11T08:21:32;5.20;99.90
29571;DHT22;16814;52.118;11.436;2023-02-11T08:23:58;5.20;99.90
29571;DHT22;16814;52.118;11.436;2023-02-11T08:26:28;5.20;99.90
29571;DHT22;16814;52.118;11.436;2023-02-11T08:28:55;5.30;99.90
29571;DHT22;16814;52.118;11.436;2023-02-11T08:31:25;5.30;99.90
29571;DHT22;16814;52.118;11.436;2023-02-11T08:33:52;5.30;99.90
29571;DHT22;16814;52.118;11.436;2023-02-11T08:36:24;5.30;99.90
29571;DHT22;16814;52.118;11.436;2023-02-11T08:38:50;5.30;99.90
29571;DHT22;16814;52.118;11.436;2023-02-11T08:41:17;5.30;99.90
29571;DHT22;16814;52.118;11.436;2023-02-11T08:43:45;5.40;99.90
29571;DHT22;16814;52.118;11.436;2023-02-11T08:46:16;5.40;99.90
29571;DHT22;16814;52.118;11.436;2023-02-11T08:48:42;5.40;99.90
29571;DHT22;16814;52.118;11.436;2023-02-11T08:51:14;5.40;99.90
29571;DHT22;16814;52.118;11.436;2023-02-11T08:53:41;5.40;99.90
29571;DHT22;16814;52.118;11.436;2023-02-11T08:56:15;5.40;99.90
29571;DHT22;16814;52.118;11.436;2023-02-11T08:58:43;5.40;99.90
29571;DHT22;16814;52.118;11.436;2023-02-11T09:01:23;5.50;99.90
29571;DHT22;16814;52.118;11.436;2023-02-11T09:03:50;5.40;99.90
29571;DHT22;16814;52.118;11.436;2023-02-11T09:06:16;5.50;99.90
29571;DHT22;16814;52.118;11.436;2023-02-11T09:08:45;5.50;99.90
29571;DHT22;16814;52.118;11.436;2023-02-11T09:11:13;5.60;99.90
29571;DHT22;16814;52.118;11.436;2023-02-11T09:13:43;5.70;99.90
29571;DHT22;16814;52.118;11.436;2023-02-11T09:16:23;5.70;99.90
29571;DHT22;16814;52.118;11.436;2023-02-11T09:18:50;5.80;99.90
29571;DHT22;16814;52.118;11.436;2023-02-11T09:21:19;5.90;99.90
29571;DHT22;16814;52.118;11.436;2023-02-11T09:23:46;5.90;99.90
29571;DHT22;16814;52.118;11.436;2023-02-11T09:26:24;5.90;99.90
29571;DHT22;16814;52.118;11.436;2023-02-11T09:28:51;5.90;99.90
29571;DHT22;16814;52.118;11.436;2023-02-11T09:31:20;5.90;99.90
29571;DHT22;16814;52.118;11.436;2023-02-11T09:33:49;5.90;99.90
29571;DHT22;16814;52.118;11.436;2023-02-11T09:36:37;5.90;99.90
29571;DHT22;16814;52.118;11.436;2023-02-11T09:39:23;6.00;99.90
29571;DHT22;16814;52.118;11.436;2023-02-11T09:45:23;6.10;99.90
29571;DHT22;16814;52.118;11.436;2023-02-11T09:48:35;6.10;99.90
29571;DHT22;16814;52.118;11.436;2023-02-11T09:50:58;6.10;99.90
29571;DHT22;16814;52.118;11.436;2023-02-11T09:53:30;6.10;99.90
29571;DHT22;16814;52.118;11.436;2023-02-11T09:55:59;6.10;99.90
29571;DHT22;16814;52.118;11.436;2023-02-11T10:01:09;6.10;99.90
29571;DHT22;16814;52.118;11.436;2023-02-11T10:07:15;6.10;99.90
29571;DHT22;16814;52.118;11.436;2023-02-11T10:19:00;6.20;99.90
29571;DHT22;16814;52.118;11.436;2023-02-11T10:24:26;6.30;99.90
29571;DHT22;16814;52.118;11.436;2023-02-11T10:26:55;6.30;99.90
29571;DHT22;16814;52.118;11.436;2023-02-11T10:29:42;6.40;99.90
29571;DHT22;16814;52.118;11.436;2023-02-11T10:32:34;6.40;99.90
29571;DHT22;16814;52.118;11.436;2023-02-11T10:35:20;6.40;99.90
29571;DHT22;16814;52.118;11.436;2023-02-11T10:37:48;6.50;99.90
29571;DHT22;16814;52.118;11.436;2023-02-11T10:40:19;6.50;99.90
29571;DHT22;16814;52.118;11.436;2023-02-11T10:42:51;6.50;99.90
29571;DHT22;16814;52.118;11.436;2023-02-11T10:48:46;6.50;99.90
29571;DHT22;16814;52.118;11.436;2023-02-11T10:51:27;6.50;99.90
29571;DHT22;16814;52.118;11.436;2023-02-11T10:54:17;6.60;99.90
29571;DHT22;16814;52.118;11.436;2023-02-11T10:56:50;6.50;99.90
29571;DHT22;16814;52.118;11.436;2023-02-11T10:59:36;6.60;99.90
29571;DHT22;16814;52.118;11.436;2023-02-11T11:02:28;6.60;99.90
29571;DHT22;16814;52.118;11.436;2023-02-11T11:05:36;6.60;99.90
29571;DHT22;16814;52.118;11.436;2023-02-11T11:08:09;6.60;99.90
29571;DHT22;16814;52.118;11.436;2023-02-11T11:10:46;6.60;99.90
29571;DHT22;16814;52.118;11.436;2023-02-11T11:13:34;6.60;99.90
29571;DHT22;16814;52.118;11.436;2023-02-11T11:18:44;6.70;99.90
29571;DHT22;16814;52.118;11.436;2023-02-11T11:21:33;6.70;99.90
29571;DHT22;16814;52.118;11.436;2023-02-11T11:24:02;6.80;99.90
29571;DHT22;16814;52.118;11.436;2023-02-11T11:26:48;6.80;99.90
29571;DHT22;16814;52.118;11.436;2023-02-11T11:29:45;6.80;99.90
29571;DHT22;16814;52.118;11.436;2023-02-11T11:32:24;6.90;99.90
29571;DHT22;16814;52.118;11.436;2023-02-11T11:34:56;6.80;99.90
29571;DHT22;16814;52.118;11.436;2023-02-11T11:37:28;6.90;99.90
29571;DHT22;16814;52.118;11.436;2023-02-11T11:42:44;6.90;99.90
29571;DHT22;16814;52.118;11.436;2023-02-11T11:45:24;6.90;99.90
29571;DHT22;16814;52.118;11.436;2023-02-11T11:48:44;7.00;99.90
29571;DHT22;16814;52.118;11.436;2023-02-11T11:51:09;7.00;99.90
29571;DHT22;16814;52.118;11.436;2023-02-11T11:53:55;6.90;99.90
29571;DHT22;16814;52.118;11.436;2023-02-11T11:56:32;7.00;99.90
29571;DHT22;16814;52.118;11.436;2023-02-11T11:59:08;6.90;99.90
29571;DHT22;16814;52.118;11.436;2023-02-11T12:04:42;7.00;99.90
29571;DHT22;16814;52.118;11.436;2023-02-11T12:10:33;7.10;99.90
29571;DHT22;16814;52.118;11.436;2023-02-11T12:15:46;7.10;99.90
29571;DHT22;16814;52.118;11.436;2023-02-11T12:21:42;7.20;99.90
29571;DHT22;16814;52.118;11.436;2023-02-11T12:27:41;7.30;99.90
29571;DHT22;16814;52.118;11.436;2023-02-11T12:30:40;7.30;99.90
29571;DHT22;16814;52.118;11.436;2023-02-11T12:34:17;7.30;99.90
29571;DHT22;16814;52.118;11.436;2023-02-11T12:37:03;7.30;99.90
29571;DHT22;16814;52.118;11.436;2023-02-11T12:40:02;7.30;99.90
29571;DHT22;16814;52.118;11.436;2023-02-11T12:51:36;7.30;99.90
29571;DHT22;16814;52.118;11.436;2023-02-11T12:54:26;7.30;99.90
29571;DHT22;16814;52.118;11.436;2023-02-11T12:57:05;7.30;99.90
29571;DHT22;16814;52.118;11.436;2023-02-11T12:59:57;7.30;99.90
29571;DHT22;16814;52.118;11.436;2023-02-11T13:02:55;7.30;99.90
29571;DHT22;16814;52.118;11.436;2023-02-11T13:05:33;7.40;99.90
29571;DHT22;16814;52.118;11.436;2023-02-11T13:08:12;7.40;99.90
29571;DHT22;16814;52.118;11.436;2023-02-11T13:10:47;7.50;99.90
29571;DHT22;16814;52.118;11.436;2023-02-11T13:21:55;7.40;99.90
29571;DHT22;16814;52.118;11.436;2023-02-11T13:24:51;7.40;99.90
29571;DHT22;16814;52.118;11.436;2023-02-11T13:27:52;7.40;99.90
29571;DHT22;16814;52.118;11.436;2023-02-11T13:30:37;7.50;99.90
29571;DHT22;16814;52.118;11.436;2023-02-11T13:38:29;7.50;99.90
29571;DHT22;16814;52.118;11.436;2023-02-11T13:44:00;7.40;99.90
29571;DHT22;16814;52.118;11.436;2023-02-11T13:46:40;7.40;99.90
29571;DHT22;16814;52.118;11.436;2023-02-11T13:49:24;7.40;99.90
29571;DHT22;16814;52.118;11.436;2023-02-11T13:52:03;7.50;99.90
29571;DHT22;16814;52.118;11.436;2023-02-11T13:54:37;7.50;99.90
29571;DHT22;16814;52.118;11.436;2023-02-11T13:57:28;7.50;99.90
29571;DHT22;16814;52.118;11.436;2023-02-11T14:00:00;7.60;99.90
29571;DHT22;16814;52.118;11.436;2023-02-11T14:02:35;7.60;99.90
29571;DHT22;16814;52.118;11.436;2023-02-11T14:05:32;7.60;99.90
29571;DHT22;16814;52.118;11.436;2023-02-11T14:08:20;7.70;99.90
29571;DHT22;16814;52.118;11.436;2023-02-11T14:14:17;7.70;99.90
29571;DHT22;16814;52.118;11.436;2023-02-11T14:19:42;7.70;99.90
29571;DHT22;16814;52.118;11.436;2023-02-11T14:22:12;7.70;99.90
29571;DHT22;16814;52.118;11.436;2023-02-11T14:24:43;7.70;99.90
29571;DHT22;16814;52.118;11.436;2023-02-11T14:27:26;7.70;99.90
29571;DHT22;16814;52.118;11.436;2023-02-11T14:30:09;7.70;99.90
29571;DHT22;16814;52.118;11.436;2023-02-11T14:33:17;7.70;99.90
29571;DHT22;16814;52.118;11.436;2023-02-11T14:35:53;7.70;99.90
29571;DHT22;16814;52.118;11.436;2023-02-11T14:41:37;7.70;99.90
29571;DHT22;16814;52.118;11.436;2023-02-11T14:44:10;7.70;99.90
29571;DHT22;16814;52.118;11.436;2023-02-11T14:46:45;7.70;99.90
29571;DHT22;16814;52.118;11.436;2023-02-11T14:49:28;7.80;99.90
29571;DHT22;16814;52.118;11.436;2023-02-11T14:52:03;7.80;99.90
29571;DHT22;16814;52.118;11.436;2023-02-11T14:54:38;7.70;99.90
29571;DHT22;16814;52.118;11.436;2023-02-11T14:57:18;7.70;99.90
29571;DHT22;16814;52.118;11.436;2023-02-11T14:59:57;7.70;99.90
29571;DHT22;16814;52.118;11.436;2023-02-11T15:02:28;7.70;99.90
29571;DHT22;16814;52.118;11.436;2023-02-11T15:05:13;7.70;99.90
29571;DHT22;16814;52.118;11.436;2023-02-11T15:08:01;7.70;99.90
29571;DHT22;16814;52.118;11.436;2023-02-11T15:10:34;7.70;99.90
29571;DHT22;16814;52.118;11.436;2023-02-11T15:13:03;7.70;99.90
29571;DHT22;16814;52.118;11.436;2023-02-11T15:15:32;7.70;99.90
29571;DHT22;16814;52.118;11.436;2023-02-11T15:18:02;7.70;99.90
29571;DHT22;16814;52.118;11.436;2023-02-11T15:20:31;7.70;99.90
29571;DHT22;16814;52.118;11.436;2023-02-11T15:23:02;7.70;99.90
29571;DHT22;16814;52.118;11.436;2023-02-11T15:25:30;7.70;99.90
29571;DHT22;16814;52.118;11.436;2023-02-11T15:27:57;7.70;99.90
29571;DHT22;16814;52.118;11.436;2023-02-11T15:30:43;7.70;99.90
29571;DHT22;16814;52.118;11.436;2023-02-11T15:33:21;7.60;99.90
29571;DHT22;16814;52.118;11.436;2023-02-11T15:35:47;7.60;99.90
29571;DHT22;16814;52.118;11.436;2023-02-11T15:38:12;7.60;99.90
29571;DHT22;16814;52.118;11.436;2023-02-11T15:40:54;7.60;99.90
29571;DHT22;16814;52.118;11.436;2023-02-11T15:43:22;7.60;99.90
29571;DHT22;16814;52.118;11.436;2023-02-11T15:45:57;7.60;99.90
29571;DHT22;16814;52.118;11.436;2023-02-11T15:48:35;7.60;99.90
29571;DHT22;16814;52.118;11.436;2023-02-11T15:51:16;7.60;99.90
29571;DHT22;16814;52.118;11.436;2023-02-11T15:53:49;7.60;99.90
29571;DHT22;16814;52.118;11.436;2023-02-11T15:56:30;7.50;99.90
29571;DHT22;16814;52.118;11.436;2023-02-11T15:59:15;7.50;99.90
29571;DHT22;16814;52.118;11.436;2023-02-11T16:01:47;7.50;99.90
29571;DHT22;16814;52.118;11.436;2023-02-11T16:04:18;7.50;99.90
29571;DHT22;16814;52.118;11.436;2023-02-11T16:06:47;7.50;99.90
29571;DHT22;16814;52.118;11.436;2023-02-11T16:14:31;7.40;99.90
29571;DHT22;16814;52.118;11.436;2023-02-11T16:17:24;7.40;99.90
29571;DHT22;16814;52.118;11.436;2023-02-11T16:19:53;7.40;99.90
29571;DHT22;16814;52.118;11.436;2023-02-11T16:22:25;7.40;99.90
29571;DHT22;16814;52.118;11.436;2023-02-11T16:25:03;7.40;99.90
29571;DHT22;16814;52.118;11.436;2023-02-11T16:27:41;7.30;99.90
29571;DHT22;16814;52.118;11.436;2023-02-11T16:30:26;7.30;99.90
29571;DHT22;16814;52.118;11.436;2023-02-11T16:32:53;7.30;99.90
29571;DHT22;16814;52.118;11.436;2023-02-11T16:35:19;7.40;99.90
29571;DHT22;16814;52.118;11.436;2023-02-11T16:37:48;7.40;99.90
29571;DHT22;16814;52.118;11.436;2023-02-11T16:40:14;7.40;99.90
29571;DHT22;16814;52.118;11.436;2023-02-11T16:42:42;7.40;99.90
29571;DHT22;16814;52.118;11.436;2023-02-11T16:45:10;7.40;99.90
29571;DHT22;16814;52.118;11.436;2023-02-11T16:47:37;7.40;99.90
29571;DHT22;16814;52.118;11.436;2023-02-11T16:50:18;7.40;99.90
29571;DHT22;16814;52.118;11.436;2023-02-11T16:52:45;7.40;99.90
29571;DHT22;16814;52.118;11.436;2023-02-11T16:55:13;7.30;99.90
29571;DHT22;16814;52.118;11.436;2023-02-11T16:57:41;7.30;99.90
29571;DHT22;16814;52.118;11.436;2023-02-11T17:00:10;7.30;99.90
29571;DHT22;16814;52.118;11.436;2023-02-11T17:02:42;7.30;99.90
29571;DHT22;16814;52.118;11.436;2023-02-11T17:05:17;7.30;99.90
29571;DHT22;16814;52.118;11.436;2023-02-11T17:07:47;7.30;99.90
29571;DHT22;16814;52.118;11.436;2023-02-11T17:12:42;7.30;99.90
29571;DHT22;16814;52.118;11.436;2023-02-11T17:15:10;7.40;99.90
29571;DHT22;16814;52.118;11.436;2023-02-11T17:17:37;7.30;99.90
29571;DHT22;16814;52.118;11.436;2023-02-11T17:20:06;7.40;99.90
29571;DHT22;16814;52.118;11.436;2023-02-11T17:22:34;7.40;99.90
29571;DHT22;16814;52.118;11.436;2023-02-11T17:25:01;7.40;99.90
29571;DHT22;16814;52.118;11.436;2023-02-11T17:27:28;7.40;99.90
29571;DHT22;16814;52.118;11.436;2023-02-11T17:29:54;7.30;99.90
29571;DHT22;16814;52.118;11.436;2023-02-11T17:32:19;7.30;99.90
29571;DHT22;16814;52.118;11.436;2023-02-11T17:34:46;7.40;99.90
29571;DHT22;16814;52.118;11.436;2023-02-11T17:37:11;7.40;99.90
29571;DHT22;16814;52.118;11.436;2023-02-11T17:39:38;7.30;99.90
29571;DHT22;16814;52.118;11.436;2023-02-11T17:42:05;7.30;99.90
29571;DHT22;16814;52.118;11.436;2023-02-11T17:44:32;7.30;99.90
29571;DHT22;16814;52.118;11.436;2023-02-11T17:46:58;7.30;99.90
29571;DHT22;16814;52.118;11.436;2023-02-11T17:49:27;7.30;99.90
29571;DHT22;16814;52.118;11.436;2023-02-11T17:51:52;7.30;99.90
29571;DHT22;16814;52.118;11.436;2023-02-11T17:54:20;7.30;99.90
29571;DHT22;16814;52.118;11.436;2023-02-11T17:56:49;7.40;99.90
29571;DHT22;16814;52.118;11.436;2023-02-11T17:59:15;7.30;99.90
29571;DHT22;16814;52.118;11.436;2023-02-11T18:01:44;7.30;99.90
29571;DHT22;16814;52.118;11.436;2023-02-11T18:04:13;7.40;99.90
29571;DHT22;16814;52.118;11.436;2023-02-11T18:06:40;7.40;99.90
29571;DHT22;16814;52.118;11.436;2023-02-11T18:09:06;7.40;99.90
29571;DHT22;16814;52.118;11.436;2023-02-11T18:11:37;7.30;99.90
29571;DHT22;16814;52.118;11.436;2023-02-11T18:14:05;7.30;99.90
29571;DHT22;16814;52.118;11.436;2023-02-11T18:16:34;7.30;99.90
29571;DHT22;16814;52.118;11.436;2023-02-11T18:19:05;7.30;99.90